RYR5201 LFML-LEPA
Flight info
| Callsign | RYR5201 |
|---|---|
| Flight time | 0h 52m |
| Altitude | 33000 |
| Route | VATIR N852 VERSO L129 LUNIK |
| Aircraft | A320/M-SDE3FGHIRWY/LB1 |
Departure
| Time | 2026-04-30 20:02 |
|---|---|
| Airport | Marseille Provence Airport (LFML) |
Arrival
| Time | 2026-04-30 20:55 |
|---|---|
| Airport | Palma de Mallorca Airport (LEPA) |
| Time | Latitude | Longitude | Altitude | Speed | Heading |
|---|---|---|---|---|---|
| 2026-04-30 19:31 | 43.44129 | 5.21689 | 38 ft | 0 kts | 314° |
| 2026-04-30 19:57 | 43.44134 | 5.21689 | 36 ft | 2 kts | 345° |
| 2026-04-30 19:58 | 43.44135 | 5.21722 | 35 ft | 7 kts | 103° |
| 2026-04-30 19:58 | 43.44096 | 5.21778 | 37 ft | 10 kts | 189° |
| 2026-04-30 19:58 | 43.44035 | 5.21708 | 37 ft | 12 kts | 223° |
| 2026-04-30 19:58 | 43.43958 | 5.21735 | 37 ft | 14 kts | 134° |
| 2026-04-30 19:59 | 43.43880 | 5.21848 | 37 ft | 18 kts | 133° |
| 2026-04-30 19:59 | 43.43783 | 5.21984 | 37 ft | 22 kts | 136° |
| 2026-04-30 19:59 | 43.43491 | 5.22229 | 36 ft | 28 kts | 150° |
| 2026-04-30 20:00 | 43.43322 | 5.22341 | 37 ft | 25 kts | 141° |
| 2026-04-30 20:00 | 43.43209 | 5.22497 | 37 ft | 10 kts | 148° |
| 2026-04-30 20:00 | 43.43138 | 5.22497 | 37 ft | 9 kts | 190° |
| 2026-04-30 20:00 | 43.43076 | 5.22460 | 37 ft | 10 kts | 214° |
| 2026-04-30 20:01 | 43.43174 | 5.22212 | 37 ft | 59 kts | 314° |
| 2026-04-30 20:01 | 43.43627 | 5.21565 | 37 ft | 125 kts | 314° |
| 2026-04-30 20:01 | 43.44333 | 5.20563 | 269 ft | 152 kts | 315° |
| 2026-04-30 20:02 | 43.45755 | 5.18516 | 1506 ft | 150 kts | 316° |
| 2026-04-30 20:02 | 43.46522 | 5.17403 | 1801 ft | 170 kts | 317° |
| 2026-04-30 20:03 | 43.47977 | 5.14418 | 2592 ft | 208 kts | 274° |
| 2026-04-30 20:03 | 43.47599 | 5.12450 | 2919 ft | 225 kts | 228° |
| 2026-04-30 20:03 | 43.46341 | 5.11278 | 3615 ft | 219 kts | 191° |
| 2026-04-30 20:03 | 43.44870 | 5.10782 | 4480 ft | 218 kts | 188° |
| 2026-04-30 20:04 | 43.43376 | 5.10292 | 5281 ft | 222 kts | 189° |
| 2026-04-30 20:04 | 43.41865 | 5.09786 | 6087 ft | 225 kts | 190° |
| 2026-04-30 20:04 | 43.40329 | 5.09258 | 6860 ft | 229 kts | 191° |
| 2026-04-30 20:05 | 43.37162 | 5.08151 | 8144 ft | 250 kts | 192° |
| 2026-04-30 20:05 | 43.35388 | 5.07573 | 8567 ft | 272 kts | 192° |
| 2026-04-30 20:05 | 43.31605 | 5.06354 | 10185 ft | 283 kts | 193° |
| 2026-04-30 20:06 | 43.29626 | 5.05708 | 10620 ft | 303 kts | 193° |
| 2026-04-30 20:06 | 43.27497 | 5.05008 | 10918 ft | 325 kts | 193° |
| 2026-04-30 20:06 | 43.25254 | 5.04268 | 11498 ft | 336 kts | 194° |
| 2026-04-30 20:06 | 43.22969 | 5.03494 | 12223 ft | 342 kts | 197° |
| 2026-04-30 20:07 | 43.20791 | 5.02159 | 12959 ft | 347 kts | 213° |
| 2026-04-30 20:07 | 43.18952 | 5.00006 | 13701 ft | 351 kts | 229° |
| 2026-04-30 20:07 | 43.15845 | 4.94773 | 15095 ft | 357 kts | 231° |
| 2026-04-30 20:08 | 43.14266 | 4.92124 | 15792 ft | 360 kts | 231° |
| 2026-04-30 20:08 | 43.12674 | 4.89459 | 16495 ft | 362 kts | 231° |
| 2026-04-30 20:08 | 43.11072 | 4.86779 | 17177 ft | 366 kts | 232° |
| 2026-04-30 20:08 | 43.09451 | 4.84076 | 17835 ft | 369 kts | 231° |
| 2026-04-30 20:09 | 43.07811 | 4.81346 | 18494 ft | 373 kts | 231° |
| 2026-04-30 20:09 | 43.06075 | 4.78698 | 19088 ft | 376 kts | 225° |
| 2026-04-30 20:09 | 43.01685 | 4.74685 | 20256 ft | 384 kts | 210° |
| 2026-04-30 20:10 | 42.96983 | 4.71126 | 21487 ft | 388 kts | 211° |
| 2026-04-30 20:10 | 42.94610 | 4.69331 | 22053 ft | 392 kts | 211° |
| 2026-04-30 20:10 | 42.92216 | 4.67521 | 22604 ft | 395 kts | 211° |
| 2026-04-30 20:11 | 42.87387 | 4.63866 | 23729 ft | 400 kts | 212° |
| 2026-04-30 20:11 | 42.84944 | 4.62019 | 24161 ft | 403 kts | 211° |
| 2026-04-30 20:11 | 42.82483 | 4.60160 | 24602 ft | 406 kts | 211° |
| 2026-04-30 20:12 | 42.77409 | 4.56685 | 25447 ft | 413 kts | 204° |
| 2026-04-30 20:12 | 42.74717 | 4.55288 | 25850 ft | 416 kts | 204° |
| 2026-04-30 20:12 | 42.72005 | 4.53888 | 26254 ft | 418 kts | 204° |
| 2026-04-30 20:13 | 42.69274 | 4.52485 | 26650 ft | 421 kts | 204° |
| 2026-04-30 20:13 | 42.66528 | 4.51081 | 27041 ft | 423 kts | 204° |
| 2026-04-30 20:13 | 42.63761 | 4.49674 | 27426 ft | 426 kts | 204° |
| 2026-04-30 20:13 | 42.60979 | 4.48261 | 27803 ft | 428 kts | 204° |
| 2026-04-30 20:14 | 42.58182 | 4.46841 | 28173 ft | 431 kts | 204° |
| 2026-04-30 20:14 | 42.55367 | 4.45408 | 28538 ft | 433 kts | 204° |
| 2026-04-30 20:14 | 42.52540 | 4.43966 | 28882 ft | 435 kts | 205° |
| 2026-04-30 20:14 | 42.49699 | 4.42517 | 29224 ft | 438 kts | 205° |
| 2026-04-30 20:15 | 42.46839 | 4.41063 | 29562 ft | 440 kts | 205° |
| 2026-04-30 20:15 | 42.43969 | 4.39603 | 29888 ft | 442 kts | 205° |
| 2026-04-30 20:15 | 42.41085 | 4.38135 | 30204 ft | 444 kts | 205° |
| 2026-04-30 20:15 | 42.38185 | 4.36658 | 30472 ft | 446 kts | 205° |
| 2026-04-30 20:16 | 42.35277 | 4.35182 | 30731 ft | 448 kts | 205° |
| 2026-04-30 20:16 | 42.32353 | 4.33703 | 30987 ft | 449 kts | 205° |
| 2026-04-30 20:16 | 42.29424 | 4.32217 | 31247 ft | 450 kts | 206° |
| 2026-04-30 20:16 | 42.26498 | 4.30714 | 31531 ft | 450 kts | 206° |
| 2026-04-30 20:17 | 42.23580 | 4.29207 | 31889 ft | 448 kts | 206° |
| 2026-04-30 20:17 | 42.20673 | 4.27707 | 32246 ft | 447 kts | 206° |
| 2026-04-30 20:17 | 42.17776 | 4.26213 | 32597 ft | 445 kts | 206° |
| 2026-04-30 20:17 | 42.14884 | 4.24723 | 32949 ft | 444 kts | 206° |
| 2026-04-30 20:18 | 42.12039 | 4.23257 | 33133 ft | 443 kts | 206° |
| 2026-04-30 20:18 | 42.06374 | 4.20361 | 33160 ft | 431 kts | 206° |
| 2026-04-30 20:19 | 42.00789 | 4.17495 | 33156 ft | 429 kts | 206° |
| 2026-04-30 20:19 | 41.95221 | 4.14639 | 33155 ft | 428 kts | 206° |
| 2026-04-30 20:20 | 41.89652 | 4.11797 | 33147 ft | 428 kts | 206° |
| 2026-04-30 20:20 | 41.84087 | 4.08968 | 33151 ft | 427 kts | 206° |
| 2026-04-30 20:21 | 41.78533 | 4.06132 | 33138 ft | 427 kts | 206° |
| 2026-04-30 20:21 | 41.72977 | 4.03307 | 33141 ft | 427 kts | 206° |
| 2026-04-30 20:22 | 41.67422 | 4.00498 | 33127 ft | 427 kts | 206° |
| 2026-04-30 20:22 | 41.61868 | 3.97700 | 33122 ft | 427 kts | 206° |
| 2026-04-30 20:23 | 41.56318 | 3.94896 | 33127 ft | 426 kts | 206° |
| 2026-04-30 20:23 | 41.50773 | 3.92087 | 33128 ft | 426 kts | 206° |
| 2026-04-30 20:24 | 41.45224 | 3.89302 | 33115 ft | 426 kts | 205° |
| 2026-04-30 20:24 | 41.39671 | 3.86532 | 33121 ft | 426 kts | 205° |
| 2026-04-30 20:25 | 41.31344 | 3.82353 | 33128 ft | 426 kts | 205° |
| 2026-04-30 20:26 | 41.22995 | 3.78174 | 33137 ft | 433 kts | 205° |
| 2026-04-30 20:26 | 41.14439 | 3.73909 | 33137 ft | 442 kts | 205° |
| 2026-04-30 20:27 | 41.02910 | 3.68190 | 33127 ft | 441 kts | 204° |
| 2026-04-30 20:28 | 40.92357 | 3.62965 | 33122 ft | 440 kts | 204° |
| 2026-04-30 20:30 | 40.78043 | 3.55921 | 33121 ft | 439 kts | 204° |
| 2026-04-30 20:30 | 40.69678 | 3.51817 | 32996 ft | 423 kts | 204° |
| 2026-04-30 20:31 | 40.61418 | 3.47765 | 32225 ft | 423 kts | 204° |
| 2026-04-30 20:32 | 40.53159 | 3.43727 | 31468 ft | 420 kts | 204° |
| 2026-04-30 20:32 | 40.47695 | 3.41071 | 30974 ft | 417 kts | 204° |
| 2026-04-30 20:33 | 40.44922 | 3.39949 | 30737 ft | 419 kts | 196° |
| 2026-04-30 20:33 | 40.39031 | 3.39508 | 30233 ft | 424 kts | 181° |
| 2026-04-30 20:33 | 40.36088 | 3.39695 | 29962 ft | 422 kts | 181° |
| 2026-04-30 20:34 | 40.30297 | 3.40037 | 28975 ft | 417 kts | 182° |
| 2026-04-30 20:34 | 40.24537 | 3.40318 | 27675 ft | 413 kts | 186° |
| 2026-04-30 20:35 | 40.21682 | 3.39788 | 26556 ft | 419 kts | 195° |
| 2026-04-30 20:35 | 40.18795 | 3.39028 | 25630 ft | 425 kts | 195° |
| 2026-04-30 20:35 | 40.13059 | 3.37469 | 24573 ft | 422 kts | 195° |
| 2026-04-30 20:36 | 40.10186 | 3.36680 | 23879 ft | 422 kts | 195° |
| 2026-04-30 20:36 | 40.07308 | 3.35896 | 23099 ft | 422 kts | 195° |
| 2026-04-30 20:36 | 40.01557 | 3.34355 | 21636 ft | 421 kts | 194° |
| 2026-04-30 20:37 | 39.98688 | 3.33598 | 20987 ft | 420 kts | 194° |
| 2026-04-30 20:37 | 39.95832 | 3.32843 | 20367 ft | 417 kts | 194° |
| 2026-04-30 20:37 | 39.92996 | 3.32091 | 19775 ft | 415 kts | 194° |
| 2026-04-30 20:37 | 39.90183 | 3.31342 | 19294 ft | 410 kts | 194° |
| 2026-04-30 20:38 | 39.87404 | 3.30600 | 18825 ft | 406 kts | 194° |
| 2026-04-30 20:38 | 39.84649 | 3.29865 | 18364 ft | 402 kts | 194° |
| 2026-04-30 20:38 | 39.81917 | 3.29138 | 17826 ft | 399 kts | 194° |
| 2026-04-30 20:39 | 39.76519 | 3.27704 | 16839 ft | 392 kts | 194° |
| 2026-04-30 20:39 | 39.73896 | 3.27011 | 16798 ft | 377 kts | 194° |
| 2026-04-30 20:39 | 39.71378 | 3.26350 | 16775 ft | 362 kts | 194° |
| 2026-04-30 20:40 | 39.66478 | 3.25060 | 16102 ft | 353 kts | 194° |
| 2026-04-30 20:40 | 39.64225 | 3.24157 | 16088 ft | 325 kts | 209° |
| 2026-04-30 20:40 | 39.62391 | 3.22618 | 15931 ft | 307 kts | 223° |
| 2026-04-30 20:41 | 39.60042 | 3.18218 | 15094 ft | 296 kts | 245° |
| 2026-04-30 20:41 | 39.59143 | 3.15841 | 14612 ft | 292 kts | 244° |
| 2026-04-30 20:41 | 39.58235 | 3.13494 | 14069 ft | 290 kts | 244° |
| 2026-04-30 20:41 | 39.57328 | 3.11171 | 13487 ft | 288 kts | 244° |
| 2026-04-30 20:42 | 39.56427 | 3.08870 | 12879 ft | 285 kts | 244° |
| 2026-04-30 20:42 | 39.55534 | 3.06589 | 12295 ft | 283 kts | 244° |
| 2026-04-30 20:42 | 39.53769 | 3.02059 | 11367 ft | 279 kts | 244° |
| 2026-04-30 20:43 | 39.52923 | 2.99885 | 11233 ft | 261 kts | 244° |
| 2026-04-30 20:43 | 39.52132 | 2.97857 | 11105 ft | 244 kts | 244° |
| 2026-04-30 20:43 | 39.51394 | 2.95963 | 10825 ft | 235 kts | 244° |
| 2026-04-30 20:44 | 39.49920 | 2.92195 | 9951 ft | 232 kts | 244° |
| 2026-04-30 20:44 | 39.49196 | 2.90339 | 9452 ft | 231 kts | 244° |
| 2026-04-30 20:44 | 39.47748 | 2.86640 | 8423 ft | 230 kts | 244° |
| 2026-04-30 20:45 | 39.46303 | 2.82950 | 7478 ft | 230 kts | 244° |
| 2026-04-30 20:45 | 39.45579 | 2.81098 | 7182 ft | 230 kts | 244° |
| 2026-04-30 20:45 | 39.44858 | 2.79260 | 6905 ft | 229 kts | 244° |
| 2026-04-30 20:46 | 39.43312 | 2.73495 | 5972 ft | 228 kts | 264° |
| 2026-04-30 20:46 | 39.43137 | 2.71493 | 5597 ft | 226 kts | 265° |
| 2026-04-30 20:47 | 39.42765 | 2.67415 | 4741 ft | 226 kts | 265° |
| 2026-04-30 20:47 | 39.42578 | 2.65390 | 4219 ft | 227 kts | 265° |
| 2026-04-30 20:48 | 39.42206 | 2.61341 | 3676 ft | 226 kts | 265° |
| 2026-04-30 20:48 | 39.42022 | 2.59349 | 3546 ft | 220 kts | 265° |
| 2026-04-30 20:48 | 39.41842 | 2.57410 | 3424 ft | 214 kts | 264° |
| 2026-04-30 20:48 | 39.41669 | 2.55518 | 3292 ft | 209 kts | 265° |
| 2026-04-30 20:49 | 39.41499 | 2.53663 | 3098 ft | 207 kts | 264° |
| 2026-04-30 20:49 | 39.41526 | 2.51824 | 2859 ft | 204 kts | 292° |
| 2026-04-30 20:49 | 39.42331 | 2.50398 | 2620 ft | 197 kts | 330° |
| 2026-04-30 20:50 | 39.44803 | 2.50510 | 2295 ft | 186 kts | 43° |
| 2026-04-30 20:50 | 39.45584 | 2.51836 | 2314 ft | 187 kts | 59° |
| 2026-04-30 20:50 | 39.46265 | 2.53277 | 2310 ft | 188 kts | 59° |
| 2026-04-30 20:50 | 39.46950 | 2.54721 | 2302 ft | 188 kts | 59° |
| 2026-04-30 20:51 | 39.47623 | 2.56137 | 2310 ft | 178 kts | 59° |
| 2026-04-30 20:51 | 39.48835 | 2.58684 | 2170 ft | 159 kts | 59° |
| 2026-04-30 20:51 | 39.49412 | 2.59897 | 1997 ft | 157 kts | 59° |
| 2026-04-30 20:52 | 39.49980 | 2.61093 | 1797 ft | 155 kts | 60° |
| 2026-04-30 20:52 | 39.50546 | 2.62283 | 1599 ft | 156 kts | 60° |
| 2026-04-30 20:52 | 39.51674 | 2.64659 | 1190 ft | 153 kts | 59° |
| 2026-04-30 20:53 | 39.52204 | 2.65774 | 1001 ft | 139 kts | 60° |
| 2026-04-30 20:53 | 39.52705 | 2.66820 | 806 ft | 134 kts | 60° |
| 2026-04-30 20:53 | 39.53193 | 2.67847 | 646 ft | 133 kts | 58° |
| 2026-04-30 20:54 | 39.54156 | 2.69884 | 286 ft | 131 kts | 59° |
| 2026-04-30 20:54 | 39.54635 | 2.70887 | 120 ft | 130 kts | 58° |
| 2026-04-30 20:54 | 39.55094 | 2.71859 | 42 ft | 119 kts | 58° |
| 2026-04-30 20:55 | 39.55634 | 2.73013 | 38 ft | 48 kts | 59° |
| 2026-04-30 20:55 | 39.55717 | 2.73303 | 38 ft | 27 kts | 86° |
| 2026-04-30 20:55 | 39.55719 | 2.73443 | 38 ft | 9 kts | 90° |
| 2026-04-30 20:56 | 39.55675 | 2.73524 | 38 ft | 2 kts | 198° |
| 2026-04-30 20:56 | 39.55651 | 2.73510 | 38 ft | 5 kts | 199° |
| 2026-04-30 20:56 | 39.55555 | 2.73551 | 36 ft | 12 kts | 149° |
| 2026-04-30 20:57 | 39.55465 | 2.73621 | 38 ft | 18 kts | 149° |
| 2026-04-30 20:57 | 39.55344 | 2.73718 | 38 ft | 23 kts | 148° |
| 2026-04-30 20:57 | 39.55217 | 2.73816 | 38 ft | 14 kts | 155° |
| 2026-04-30 20:58 | 39.55174 | 2.73721 | 38 ft | 1 kts | 284° |
| 2026-04-30 20:58 | 39.55167 | 2.73717 | 38 ft | 1 kts | 207° |
| 2026-04-30 20:58 | 39.55145 | 2.73739 | 38 ft | 7 kts | 120° |
| 2026-04-30 20:58 | 39.55100 | 2.73804 | 38 ft | 12 kts | 145° |
| 2026-04-30 20:59 | 39.55019 | 2.73763 | 36 ft | 7 kts | 240° |
| 2026-04-30 20:59 | 39.55007 | 2.73736 | 38 ft | 3 kts | 239° |
| 2026-04-30 21:00 | 39.55001 | 2.73725 | 38 ft | 0 kts | 239° |